createdAt,value
2022-08-23T00:27:11.332Z,13.6
2022-08-23T00:30:11.350Z,13.6
2022-08-23T00:33:11.359Z,13.6
2022-08-23T00:36:11.313Z,13.6
2022-08-23T00:39:11.410Z,13.5
2022-08-23T00:42:11.370Z,13.5
2022-08-23T00:45:11.369Z,13.5
2022-08-23T00:48:11.803Z,13.5
2022-08-23T00:51:11.353Z,13.5
2022-08-23T00:54:13.927Z,13.4
2022-08-23T00:57:11.388Z,13.5
2022-08-23T01:00:11.387Z,13.5
2022-08-23T01:03:17.840Z,13.5
2022-08-23T01:06:11.322Z,13.5
2022-08-23T01:09:11.300Z,13.6
2022-08-23T01:12:11.409Z,13.6
2022-08-23T01:15:11.358Z,13.6
2022-08-23T01:18:11.759Z,13.8
2022-08-23T01:21:19.734Z,13.9
2022-08-23T01:24:49.788Z,14
2022-08-23T01:27:11.362Z,14
2022-08-23T01:30:11.387Z,14.1
2022-08-23T01:33:11.471Z,14.1
2022-08-23T01:36:18.488Z,14.1
2022-08-23T01:39:11.384Z,14.1
2022-08-23T01:42:18.107Z,14.1
2022-08-23T01:45:11.365Z,14.1
2022-08-23T01:48:11.958Z,14.1
2022-08-23T01:51:11.373Z,14
2022-08-23T01:54:11.331Z,14
2022-08-23T01:57:11.380Z,14
2022-08-23T02:00:11.347Z,13.9
2022-08-23T02:03:11.796Z,13.6
2022-08-23T02:06:11.324Z,13.5
2022-08-23T02:09:25.499Z,13.4
2022-08-23T02:12:11.318Z,13.3
2022-08-23T02:15:11.468Z,13.3
2022-08-23T02:18:11.796Z,13.3
2022-08-23T02:21:11.734Z,13.3
2022-08-23T02:24:13.342Z,13.3
2022-08-23T02:27:13.578Z,13.4
2022-08-23T02:30:15.066Z,13.3
2022-08-23T02:33:18.431Z,13.3
2022-08-23T02:36:11.516Z,13.3
2022-08-23T02:39:11.393Z,13.1
2022-08-23T02:42:14.052Z,13
2022-08-23T02:45:11.341Z,12.9
2022-08-23T02:48:11.744Z,12.8
2022-08-23T02:51:11.338Z,12.8
2022-08-23T02:54:11.372Z,12.6
2022-08-23T02:57:11.333Z,12.6
2022-08-23T03:00:11.906Z,12.5
2022-08-23T03:03:11.341Z,12.5
2022-08-23T03:06:36.806Z,12.5
2022-08-23T03:09:11.328Z,12.4
2022-08-23T03:12:11.375Z,12.4
2022-08-23T03:15:12.223Z,12.2
2022-08-23T03:18:11.735Z,12.1
2022-08-23T03:21:11.332Z,12.1
2022-08-23T03:24:16.997Z,12
2022-08-23T03:27:11.559Z,11.9
2022-08-23T03:30:22.366Z,11.9
2022-08-23T03:33:11.308Z,11.8
2022-08-23T03:36:11.372Z,11.6
2022-08-23T03:39:11.316Z,11.6
2022-08-23T03:42:11.365Z,11.5
2022-08-23T03:45:13.704Z,11.5
2022-08-23T03:48:11.687Z,11.5
2022-08-23T03:51:11.327Z,11.5
2022-08-23T03:54:11.277Z,11.4
2022-08-23T03:57:11.419Z,11.4
2022-08-23T04:00:11.464Z,11.4
2022-08-23T04:03:11.337Z,11.4
2022-08-23T04:06:12.005Z,11.4
2022-08-23T04:09:11.335Z,11.4
2022-08-23T04:12:24.042Z,11.5
2022-08-23T04:15:13.592Z,11.4
2022-08-23T04:18:13.688Z,11.5
2022-08-23T04:21:11.365Z,11.4
2022-08-23T04:24:11.364Z,11.4
2022-08-23T04:27:11.351Z,11.5
2022-08-23T04:30:22.496Z,11.6
2022-08-23T04:33:25.670Z,11.6
2022-08-23T04:36:11.385Z,11.6
2022-08-23T04:39:11.366Z,11.8
2022-08-23T04:42:16.413Z,11.8
2022-08-23T04:45:11.613Z,11.9
2022-08-23T04:48:16.344Z,12.1
2022-08-23T04:51:11.417Z,12.1
2022-08-23T04:54:11.332Z,12.2
2022-08-23T04:57:11.363Z,12.2
2022-08-23T05:00:11.423Z,12.4
2022-08-23T05:03:11.365Z,12.5
2022-08-23T05:06:11.396Z,12.6
2022-08-23T05:09:11.360Z,12.8
2022-08-23T05:12:11.477Z,12.9
2022-08-23T05:15:11.381Z,13
2022-08-23T05:18:11.868Z,13.3
2022-08-23T05:21:11.325Z,13.4
2022-08-23T05:24:20.398Z,13.6
2022-08-23T05:27:17.265Z,13.8
2022-08-23T05:30:17.634Z,14
2022-08-23T05:33:15.388Z,14.3
2022-08-23T05:36:11.419Z,14.5
2022-08-23T05:39:11.508Z,14.9
2022-08-23T05:42:11.475Z,16.6
2022-08-23T05:45:23.873Z,20
2022-08-23T05:48:12.623Z,22.6
2022-08-23T05:51:11.387Z,24.5
2022-08-23T05:54:12.197Z,26.1
2022-08-23T05:57:11.397Z,27.8
2022-08-23T06:00:12.671Z,29.3
2022-08-23T06:03:11.352Z,30.4
2022-08-23T06:06:11.397Z,31.4
2022-08-23T06:09:11.379Z,32.2
2022-08-23T06:12:11.412Z,32.9
2022-08-23T06:15:11.383Z,33.6
2022-08-23T06:18:11.890Z,34.4
2022-08-23T06:21:11.355Z,35.1
2022-08-23T06:24:11.316Z,35.7
2022-08-23T06:27:11.458Z,36.4
2022-08-23T06:30:17.414Z,36.9
2022-08-23T06:33:11.358Z,37.2
2022-08-23T06:36:11.301Z,37.9
2022-08-23T06:39:11.501Z,38.5
2022-08-23T06:42:43.274Z,39
2022-08-23T06:45:11.523Z,39.5
2022-08-23T06:48:14.867Z,40.2
2022-08-23T06:51:15.620Z,40.4
2022-08-23T06:54:16.325Z,40.5
2022-08-23T06:57:11.381Z,40.6
2022-08-23T07:00:11.475Z,40.9
2022-08-23T07:03:12.684Z,41.4
2022-08-23T07:06:11.335Z,42
2022-08-23T07:09:11.331Z,42.1
2022-08-23T07:12:11.304Z,42.4
2022-08-23T07:15:11.840Z,42.6
2022-08-23T07:18:17.773Z,42.9
2022-08-23T07:21:11.377Z,43.4
2022-08-23T07:24:11.378Z,43.6
2022-08-23T07:27:11.650Z,43.7
2022-08-23T07:30:11.390Z,43.9
2022-08-23T07:33:16.024Z,44
2022-08-23T07:36:11.990Z,44.1
2022-08-23T07:39:11.378Z,44.2
2022-08-23T07:42:32.828Z,44.2
2022-08-23T07:45:15.168Z,44.1
2022-08-23T07:48:27.370Z,44.2
2022-08-23T07:51:14.898Z,44
2022-08-23T07:54:11.390Z,44.1
2022-08-23T07:57:12.191Z,44.2
2022-08-23T08:00:11.508Z,44.5
2022-08-23T08:03:12.045Z,45
2022-08-23T08:06:11.402Z,45.5
2022-08-23T08:09:11.440Z,45.8
2022-08-23T08:12:11.423Z,46.1
2022-08-23T08:15:11.383Z,46.4
2022-08-23T08:18:14.029Z,46.5
2022-08-23T08:21:11.354Z,46.6
2022-08-23T08:24:11.461Z,47.1
2022-08-23T08:27:12.223Z,47.5
2022-08-23T08:30:11.786Z,47.2
2022-08-23T08:33:12.329Z,47
2022-08-23T08:36:16.398Z,46.6
2022-08-23T08:39:14.888Z,46.6
2022-08-23T08:42:15.950Z,46.9
2022-08-23T08:45:13.218Z,47.4
2022-08-23T08:48:16.998Z,47.4
2022-08-23T08:51:11.416Z,47.5
2022-08-23T08:54:11.481Z,47.6
2022-08-23T08:57:11.454Z,47.6
2022-08-23T09:00:11.503Z,47.7
2022-08-23T09:03:11.831Z,47.9
2022-08-23T09:06:15.470Z,47.9
2022-08-23T09:09:11.338Z,48.1
2022-08-23T09:12:12.179Z,48
2022-08-23T09:15:11.478Z,47.7
2022-08-23T09:18:12.026Z,47.6
2022-08-23T09:21:11.482Z,47.5
2022-08-23T09:24:12.228Z,47.7
2022-08-23T09:27:11.357Z,48
2022-08-23T09:30:11.556Z,48.1
2022-08-23T09:33:12.146Z,48.1
2022-08-23T09:36:12.767Z,48.3
2022-08-23T09:39:11.306Z,48.3
2022-08-23T09:42:11.386Z,48.1
2022-08-23T09:45:11.336Z,48.3
2022-08-23T09:48:11.892Z,48.7
2022-08-23T09:51:11.367Z,49
2022-08-23T09:54:11.376Z,49.5
2022-08-23T09:57:11.415Z,49.7
2022-08-23T10:00:11.475Z,49.7
2022-08-23T10:03:11.974Z,49.6
2022-08-23T10:06:11.365Z,49.5
2022-08-23T10:09:11.425Z,49.4
2022-08-23T10:12:18.309Z,49.1
2022-08-23T10:15:13.616Z,49
2022-08-23T10:18:12.400Z,48.9
2022-08-23T10:21:11.408Z,49
2022-08-23T10:24:11.370Z,49
2022-08-23T10:27:11.398Z,49
2022-08-23T10:30:11.399Z,49.1
2022-08-23T10:33:18.582Z,49.2
2022-08-23T10:36:11.447Z,49.5
2022-08-23T10:39:13.313Z,49.6
2022-08-23T10:42:11.400Z,49.6
2022-08-23T10:45:11.403Z,49.6
2022-08-23T10:48:11.896Z,49.7
2022-08-23T10:51:11.383Z,49.7
2022-08-23T10:54:11.424Z,49.6
2022-08-23T10:57:11.327Z,49.9
2022-08-23T11:00:11.442Z,50.1
2022-08-23T11:03:11.771Z,49.9
2022-08-23T11:06:11.607Z,49.7
2022-08-23T11:09:11.378Z,50
2022-08-23T11:15:11.391Z,50.2
2022-08-23T11:24:11.741Z,51
2022-08-23T11:27:20.508Z,50.8
2022-08-23T11:30:11.463Z,50.4
2022-08-23T11:33:16.732Z,50.1
2022-08-23T11:36:11.361Z,50.1
2022-08-23T11:39:11.374Z,50.1
2022-08-23T11:42:11.369Z,50
2022-08-23T11:45:13.252Z,50.2
2022-08-23T11:48:11.677Z,50.2
2022-08-23T11:51:11.420Z,50.5
2022-08-23T11:54:11.382Z,50.8
2022-08-23T11:57:11.354Z,50.8
2022-08-23T12:00:11.607Z,50.9
2022-08-23T12:03:12.558Z,51
2022-08-23T12:06:12.548Z,51
2022-08-23T12:09:12.679Z,51
2022-08-23T12:12:13.151Z,51.1
2022-08-23T12:15:11.965Z,51.4
2022-08-23T12:18:13.545Z,51.4
2022-08-23T12:21:11.382Z,51.6
2022-08-23T12:24:12.269Z,51.4
2022-08-23T12:27:11.382Z,51.2
2022-08-23T12:30:11.569Z,50.9
2022-08-23T12:33:11.390Z,51.1
2022-08-23T12:36:22.838Z,51.4
2022-08-23T12:39:11.477Z,51.6
2022-08-23T12:42:13.378Z,51.6
2022-08-23T12:45:11.731Z,51.9
2022-08-23T12:48:12.610Z,52.2
2022-08-23T12:51:11.429Z,52.5
2022-08-23T12:54:11.468Z,52.6
2022-08-23T12:57:11.407Z,52.4
2022-08-23T13:00:29.036Z,52.1
2022-08-23T13:03:13.313Z,52.1
2022-08-23T13:06:19.169Z,51.9
2022-08-23T13:09:11.378Z,51.6
2022-08-23T13:12:12.019Z,51.2
2022-08-23T13:15:11.650Z,51
2022-08-23T13:18:12.181Z,51
2022-08-23T13:21:11.480Z,50.8
2022-08-23T13:24:12.126Z,50.6
2022-08-23T13:27:11.471Z,50.5
2022-08-23T13:30:11.567Z,50.6
2022-08-23T13:33:19.120Z,50.5
2022-08-23T13:36:19.695Z,50.5
2022-08-23T13:39:11.342Z,50.6
2022-08-23T13:42:11.482Z,50.8
2022-08-23T13:45:11.583Z,50.6
2022-08-23T13:48:11.421Z,50.6
2022-08-23T13:51:18.773Z,50.8
2022-08-23T13:54:11.512Z,51.2
2022-08-23T13:57:11.381Z,51.1
2022-08-23T14:00:13.498Z,50.9
2022-08-23T14:03:12.086Z,50.9
2022-08-23T14:06:11.337Z,50.2
2022-08-23T14:09:11.691Z,50.4
2022-08-23T14:12:21.222Z,50.8
2022-08-23T14:15:11.396Z,50.9
2022-08-23T14:18:11.395Z,50.5
2022-08-23T14:21:11.370Z,49.7
2022-08-23T14:24:11.345Z,49.6
2022-08-23T14:27:11.601Z,50.1
2022-08-23T14:30:11.556Z,50.4
2022-08-23T14:33:12.870Z,50.4
2022-08-23T14:36:12.567Z,50.6
2022-08-23T14:39:16.672Z,50.8
2022-08-23T14:42:11.638Z,50.9
2022-08-23T14:45:11.378Z,50.8
2022-08-23T14:48:13.100Z,50.8
2022-08-23T14:51:11.398Z,50.4
2022-08-23T14:54:11.596Z,49.9
2022-08-23T14:57:11.385Z,49.4
2022-08-23T15:00:11.630Z,49
2022-08-23T15:03:18.147Z,49
2022-08-23T15:06:11.356Z,48.9
2022-08-23T15:09:12.769Z,49
2022-08-23T15:15:14.456Z,48.6
2022-08-23T15:18:12.122Z,48.3
2022-08-23T15:21:11.369Z,48
2022-08-23T15:24:11.379Z,48
2022-08-23T15:27:12.422Z,47.7
2022-08-23T15:30:11.447Z,47.6
2022-08-23T15:33:17.360Z,47.5
2022-08-23T15:36:13.188Z,47.2
2022-08-23T15:39:11.320Z,47.1
2022-08-23T15:42:14.261Z,46.9
2022-08-23T15:45:11.430Z,46.1
2022-08-23T15:48:11.541Z,45.9
2022-08-23T15:51:11.387Z,45.8
2022-08-23T15:54:12.419Z,45.4
2022-08-23T15:57:11.345Z,44.6
2022-08-23T16:00:11.465Z,44
2022-08-23T16:03:33.102Z,43.5
2022-08-23T16:06:11.460Z,43.5
2022-08-23T16:09:16.371Z,42.9
2022-08-23T16:12:11.440Z,42.7
2022-08-23T16:15:11.442Z,42.4
2022-08-23T16:18:11.383Z,42.4
2022-08-23T16:21:11.352Z,42.2
2022-08-23T16:24:11.387Z,41.9
2022-08-23T16:27:11.327Z,41.5
2022-08-23T16:30:15.397Z,41.2
2022-08-23T16:33:11.943Z,41.1
2022-08-23T16:36:11.404Z,40.8
2022-08-23T16:39:11.392Z,40.2
2022-08-23T16:42:11.394Z,39
2022-08-23T16:45:11.341Z,37.9
2022-08-23T16:48:16.861Z,36.6
2022-08-23T16:51:11.418Z,37
2022-08-23T16:54:14.145Z,37
2022-08-23T16:57:11.378Z,37.4
2022-08-23T17:00:13.461Z,37.4
2022-08-23T17:03:12.387Z,37
2022-08-23T17:06:11.339Z,36.5
2022-08-23T17:09:11.435Z,36.4
2022-08-23T17:12:11.395Z,36
2022-08-23T17:15:11.352Z,34
2022-08-23T17:18:11.349Z,31.8
2022-08-23T17:21:11.507Z,30.5
2022-08-23T17:24:11.388Z,29.5
2022-08-23T17:27:21.241Z,28.7
2022-08-23T17:30:17.035Z,28.3
2022-08-23T17:33:11.841Z,27.8
2022-08-23T17:36:11.425Z,27.4
2022-08-23T17:39:11.380Z,27
2022-08-23T17:42:11.368Z,26.8
2022-08-23T17:45:11.399Z,26.4
2022-08-23T17:48:11.383Z,26.2
2022-08-23T17:51:11.314Z,26
2022-08-23T17:54:11.399Z,25.8
2022-08-23T17:57:13.375Z,25.5
2022-08-23T18:00:11.529Z,25.3
2022-08-23T18:03:12.182Z,25.1
2022-08-23T18:06:25.494Z,24.9
2022-08-23T18:09:11.375Z,24.6
2022-08-23T18:12:11.406Z,24.4
2022-08-23T18:15:11.406Z,24.3
2022-08-23T18:18:11.436Z,23.9
2022-08-23T18:21:11.754Z,23.6
2022-08-23T18:24:11.363Z,23.4
2022-08-23T18:27:12.492Z,23.1
2022-08-23T18:30:11.480Z,23
2022-08-23T18:33:16.774Z,22.9
2022-08-23T18:36:11.340Z,22.8
2022-08-23T18:39:11.567Z,22.6
2022-08-23T18:42:11.305Z,22.4
2022-08-23T18:45:11.343Z,22.4
2022-08-23T18:48:11.335Z,22.2
2022-08-23T18:51:21.951Z,22.1
2022-08-23T18:54:11.379Z,22
2022-08-23T18:57:17.995Z,22
2022-08-23T19:00:11.389Z,21.9
2022-08-23T19:03:13.345Z,21.9
2022-08-23T19:06:11.328Z,21.6
2022-08-23T19:09:15.236Z,21.4
2022-08-23T19:12:11.436Z,21.1
2022-08-23T19:15:11.427Z,20.8
2022-08-23T19:18:11.335Z,20.4
2022-08-23T19:21:11.317Z,20.1
2022-08-23T19:24:11.336Z,19.9
2022-08-23T19:27:11.428Z,19.8
2022-08-23T19:30:19.506Z,19.6
2022-08-23T19:33:11.827Z,19.5
2022-08-23T19:36:45.644Z,19.4
2022-08-23T19:39:11.419Z,19.3
2022-08-23T19:42:16.250Z,19.1
2022-08-23T19:45:11.361Z,19
2022-08-23T19:48:11.361Z,18.9
2022-08-23T19:51:11.316Z,18.8
2022-08-23T19:54:19.513Z,18.8
2022-08-23T19:57:11.373Z,18.6
2022-08-23T20:00:13.594Z,18.5
2022-08-23T20:03:11.941Z,18.4
2022-08-23T20:06:15.171Z,18.4
2022-08-23T20:09:11.437Z,18.3
2022-08-23T20:12:11.322Z,18.3
2022-08-23T20:15:11.478Z,18.1
2022-08-23T20:18:11.317Z,18.1
2022-08-23T20:21:11.823Z,18.1
2022-08-23T20:24:11.360Z,18.1
2022-08-23T20:27:31.396Z,18
2022-08-23T20:30:11.357Z,18
2022-08-23T20:33:11.585Z,17.9
2022-08-23T20:36:11.335Z,17.9
2022-08-23T20:39:11.427Z,17.8
2022-08-23T20:42:14.349Z,17.8
2022-08-23T20:45:11.490Z,17.8
2022-08-23T20:48:15.431Z,17.8
2022-08-23T20:51:13.518Z,17.8
2022-08-23T20:54:11.420Z,17.6
2022-08-23T20:57:11.519Z,17.6
2022-08-23T21:00:11.676Z,17.6
2022-08-23T21:03:11.838Z,17.8
2022-08-23T21:06:12.323Z,17.8
2022-08-23T21:09:11.373Z,17.8
2022-08-23T21:12:11.394Z,17.8
2022-08-23T21:15:15.594Z,17.6
2022-08-23T21:18:11.429Z,17.5
2022-08-23T21:21:11.406Z,17.5
2022-08-23T21:24:11.347Z,17.2
2022-08-23T21:27:18.070Z,17.1
2022-08-23T21:30:11.360Z,17
2022-08-23T21:33:11.744Z,16.9
2022-08-23T21:36:11.369Z,16.8
2022-08-23T21:39:11.345Z,16.8
2022-08-23T21:42:28.262Z,16.6
2022-08-23T21:45:13.787Z,16.5
2022-08-23T21:48:12.191Z,16.5
2022-08-23T21:51:11.343Z,16.4
2022-08-23T21:54:11.368Z,16.3
2022-08-23T21:57:11.343Z,16.3
2022-08-23T22:00:11.796Z,16.1
2022-08-23T22:03:12.830Z,16.1
2022-08-23T22:06:11.351Z,16
2022-08-23T22:09:11.318Z,16
2022-08-23T22:12:12.717Z,16
2022-08-23T22:15:11.349Z,15.9
2022-08-23T22:18:11.335Z,15.9
2022-08-23T22:21:11.311Z,15.9
2022-08-23T22:24:11.315Z,15.9
2022-08-23T22:27:11.399Z,15.8
2022-08-23T22:30:11.390Z,15.8
2022-08-23T22:33:11.720Z,15.8
2022-08-23T22:36:11.323Z,15.8
2022-08-23T22:39:11.559Z,15.6
2022-08-23T22:42:16.227Z,15.6
2022-08-23T22:45:11.415Z,15.5
2022-08-23T22:48:11.974Z,15.5
2022-08-23T22:51:11.347Z,15.4
2022-08-23T22:54:11.299Z,15.4
2022-08-23T22:57:11.309Z,15.3
2022-08-23T23:00:16.243Z,15.3
2022-08-23T23:03:15.169Z,15.1
2022-08-23T23:06:11.505Z,15
2022-08-23T23:09:11.325Z,15
2022-08-23T23:12:11.343Z,14.9
2022-08-23T23:15:12.068Z,14.9
2022-08-23T23:18:11.607Z,14.7
2022-08-23T23:21:11.363Z,14.7
2022-08-23T23:24:11.295Z,14.7
2022-08-23T23:27:11.363Z,14.7
2022-08-23T23:30:11.335Z,14.6
2022-08-23T23:33:11.326Z,14.6
2022-08-23T23:36:18.549Z,14.6
2022-08-23T23:39:11.338Z,14.6
2022-08-23T23:42:11.327Z,14.5
2022-08-23T23:45:11.379Z,14.5
2022-08-23T23:48:17.129Z,14.5
2022-08-23T23:51:11.341Z,14.4
2022-08-23T23:54:21.072Z,14.4
2022-08-23T23:57:11.413Z,14.4
